Terminal Aerodrome Forecast
Issued by NWS Bismarck, ND

Home | Current Version | Previous Version | Graphics & Text | Print | Product List | Glossary On
Versions: 1 2 3 4 5 6 7 8 9 10 11 12 13 14 15 16 17 18 19 20 21 22 23 24 25 26 27
000
FTUS43 KBIS 242300
TAFISN
TAF
KISN 242320Z 2500/2524 14008KT P6SM SKC
     FM250200 19008KT P6SM VCTS SCT100CB
      TEMPO 2502/2504 VRB20G30KT 3SM TSRA BKN080CB
     FM250400 33013KT P6SM SCT120
     FM250900 28009KT P6SM SKC
     FM251500 26014G23KT P6SM SKC=

USA.gov is the U.S. government's official web portal to all federal, state and local government web resources and services.